createdAt,value
2022-11-15T00:02:08.577Z,101375.22
2022-11-15T00:04:35.083Z,101383.38
2022-11-15T00:07:01.523Z,101379.78
2022-11-15T00:09:27.943Z,101375.22
2022-11-15T00:11:54.468Z,101382.50
2022-11-15T00:14:20.852Z,101377.94
2022-11-15T00:16:47.285Z,101379.63
2022-11-15T00:19:13.688Z,101366.88
2022-11-15T00:21:40.176Z,101359.75
2022-11-15T00:24:06.747Z,101359.75
2022-11-15T00:26:33.127Z,101350.56
2022-11-15T00:28:59.551Z,101347.16
2022-11-15T00:31:25.919Z,101341.56
2022-11-15T00:33:52.314Z,101339.69
2022-11-15T00:36:18.759Z,101339.69
2022-11-15T00:38:45.133Z,101342.41
2022-11-15T00:41:11.603Z,101323.34
2022-11-15T00:43:38.547Z,101328.97
2022-11-15T00:46:05.059Z,101321.47
2022-11-15T00:48:32.408Z,101323.34
2022-11-15T00:50:58.817Z,101323.34
2022-11-15T00:53:25.438Z,101321.47
2022-11-15T00:55:52.090Z,101322.66
2022-11-15T00:58:18.542Z,101321.66
2022-11-15T01:00:44.965Z,101315.38
2022-11-15T01:03:11.382Z,101310.94
2022-11-15T01:05:38.567Z,101306.34
2022-11-15T01:08:05.614Z,101310.94
2022-11-15T01:10:32.010Z,101297.31
2022-11-15T01:12:58.385Z,101306.50
2022-11-15T01:15:24.768Z,101310.09
2022-11-15T01:17:51.206Z,101296.66
2022-11-15T01:20:17.653Z,101304.81
2022-11-15T01:22:44.075Z,101302.09
2022-11-15T01:25:10.536Z,101292.25
2022-11-15T01:27:36.871Z,101287.66
2022-11-15T01:30:03.669Z,101290.53
2022-11-15T01:32:30.136Z,101290.38
2022-11-15T01:34:56.508Z,101280.50
2022-11-15T01:37:22.894Z,101288.66
2022-11-15T01:39:49.330Z,101275.94
2022-11-15T01:42:15.733Z,101288.50
2022-11-15T01:44:44.007Z,101274.06
2022-11-15T01:47:14.343Z,101273.88
2022-11-15T01:49:44.541Z,101267.59
2022-11-15T01:52:14.052Z,101260.44
2022-11-15T01:54:40.641Z,101267.59
2022-11-15T01:57:10.248Z,101261.28
2022-11-15T01:59:38.330Z,101257.53
2022-11-15T02:02:04.780Z,101250.41
2022-11-15T02:04:37.170Z,101254.16
2022-11-15T02:07:05.619Z,101256.00
2022-11-15T02:09:32.011Z,101249.72
2022-11-15T02:11:58.553Z,101255.00
2022-11-15T02:14:27.071Z,101252.28
2022-11-15T02:16:53.432Z,101249.91
2022-11-15T02:19:38.521Z,101249.06
2022-11-15T02:22:07.852Z,101239.03
2022-11-15T02:24:40.520Z,101254.31
2022-11-15T02:27:25.734Z,101245.31
2022-11-15T02:29:55.159Z,101247.19
2022-11-15T02:32:35.055Z,101242.78
2022-11-15T02:35:01.448Z,101240.03
2022-11-15T02:37:27.779Z,101224.38
2022-11-15T02:40:12.688Z,101227.09
2022-11-15T02:43:04.392Z,101224.38
2022-11-15T02:45:36.693Z,101218.09
2022-11-15T02:48:04.911Z,101227.28
2022-11-15T02:50:33.085Z,101219.97
2022-11-15T02:52:59.506Z,101218.94
2022-11-15T02:55:28.022Z,101215.38
2022-11-15T02:58:13.376Z,101216.41
2022-11-15T03:00:45.535Z,101226.25
2022-11-15T03:03:18.001Z,101223.72
2022-11-15T03:05:53.561Z,101229.16
2022-11-15T03:08:29.161Z,101224.91
2022-11-15T03:11:09.502Z,101215.56
2022-11-15T03:13:45.275Z,101214.03
2022-11-15T03:16:26.999Z,101214.88
2022-11-15T03:18:56.265Z,101209.44
2022-11-15T03:21:23.260Z,101214.34
2022-11-15T03:23:50.991Z,101208.25
2022-11-15T03:26:20.459Z,101207.91
2022-11-15T03:28:51.023Z,101202.28
2022-11-15T03:31:39.157Z,101200.22
2022-11-15T03:34:07.974Z,101194.63
2022-11-15T03:36:35.471Z,101187.50
2022-11-15T03:39:05.068Z,101190.22
2022-11-15T03:41:48.661Z,101194.78
2022-11-15T03:44:17.633Z,101197.50
2022-11-15T03:46:47.634Z,101199.38
2022-11-15T03:49:20.725Z,101194.78
2022-11-15T03:51:47.115Z,101196.50
2022-11-15T03:54:13.931Z,101193.94
2022-11-15T03:56:40.266Z,101190.38
2022-11-15T03:59:07.771Z,101193.28
2022-11-15T04:01:34.188Z,101195.16
2022-11-15T04:04:00.691Z,101195.16
2022-11-15T04:06:27.568Z,101195.16
2022-11-15T04:08:53.966Z,101194.97
2022-11-15T04:11:20.355Z,101185.13
2022-11-15T04:13:46.696Z,101192.59
2022-11-15T04:16:13.209Z,101190.72
2022-11-15T04:18:39.645Z,101187.34
2022-11-15T04:21:24.676Z,101185.63
2022-11-15T04:24:09.067Z,101176.63
2022-11-15T04:26:35.497Z,101177.63
2022-11-15T04:29:20.676Z,101182.06
2022-11-15T04:31:47.139Z,101184.09
2022-11-15T04:34:13.525Z,101179.69
2022-11-15T04:36:58.679Z,101174.06
2022-11-15T04:39:25.041Z,101172.38
2022-11-15T04:41:51.398Z,101164.22
2022-11-15T04:44:17.861Z,101175.09
2022-11-15T04:46:44.304Z,101172.38
2022-11-15T04:49:10.728Z,101173.91
2022-11-15T04:51:37.210Z,101176.97
2022-11-15T04:54:03.730Z,101181.38
2022-11-15T04:56:30.262Z,101174.06
2022-11-15T04:58:56.614Z,101171.19
2022-11-15T05:01:23.085Z,101169.31
2022-11-15T05:04:08.160Z,101175.75
2022-11-15T05:06:34.563Z,101172.38
2022-11-15T05:09:00.931Z,101171.69
2022-11-15T05:11:28.296Z,101171.84
2022-11-15T05:13:55.075Z,101176.28
2022-11-15T05:16:21.453Z,101170.81
2022-11-15T05:18:47.935Z,101174.41
2022-11-15T05:21:15.508Z,101173.72
2022-11-15T05:23:42.170Z,101171.00
2022-11-15T05:26:09.672Z,101169.13
2022-11-15T05:28:37.493Z,101163.88
2022-11-15T05:31:05.068Z,101161.31
2022-11-15T05:33:32.178Z,101173.03
2022-11-15T05:36:15.410Z,101166.75
2022-11-15T05:38:42.453Z,101175.94
2022-11-15T05:41:09.237Z,101172.38
2022-11-15T05:43:37.100Z,101171.53
2022-11-15T05:46:05.224Z,101180.53
2022-11-15T05:48:32.301Z,101171.19
2022-11-15T05:50:59.019Z,101177.63
2022-11-15T05:53:26.155Z,101170.31
2022-11-15T05:55:52.562Z,101167.44
2022-11-15T05:58:20.144Z,101171.00
2022-11-15T06:00:46.854Z,101172.69
2022-11-15T06:03:15.106Z,101166.25
2022-11-15T06:05:44.739Z,101172.56
2022-11-15T06:08:14.051Z,101178.84
2022-11-15T06:10:40.403Z,101178.00
2022-11-15T06:13:06.815Z,101177.13
2022-11-15T06:15:34.455Z,101180.03
2022-11-15T06:18:00.888Z,101180.88
2022-11-15T06:20:28.771Z,101187.16
2022-11-15T06:23:01.161Z,101181.56
2022-11-15T06:25:28.135Z,101179.69
2022-11-15T06:27:55.327Z,101188.69
2022-11-15T06:30:22.491Z,101184.09
2022-11-15T06:32:48.875Z,101183.44
2022-11-15T06:35:15.355Z,101181.72
2022-11-15T06:37:42.048Z,101182.75
2022-11-15T06:40:09.513Z,101181.06
2022-11-15T06:42:35.974Z,101183.78
2022-11-15T06:45:02.353Z,101191.75
2022-11-15T06:47:28.852Z,101198.03
2022-11-15T06:49:55.286Z,101201.78
2022-11-15T06:52:22.700Z,101206.19
2022-11-15T06:54:49.097Z,101207.41
2022-11-15T06:57:15.528Z,101208.41
2022-11-15T06:59:41.909Z,101204.84
2022-11-15T07:02:12.638Z,101204.84
2022-11-15T07:04:39.129Z,101205.00
2022-11-15T07:07:05.616Z,101210.28
2022-11-15T07:09:32.015Z,101192.59
2022-11-15T07:12:01.038Z,101207.75
2022-11-15T07:14:31.093Z,101198.88
2022-11-15T07:16:57.503Z,101202.28
2022-11-15T07:19:23.903Z,101204.16
2022-11-15T07:21:50.239Z,101203.84
2022-11-15T07:24:16.633Z,101211.81
2022-11-15T07:26:43.059Z,101205.53
2022-11-15T07:29:09.673Z,101210.97
2022-11-15T07:31:36.481Z,101219.13
2022-11-15T07:34:03.003Z,101219.97
2022-11-15T07:36:29.447Z,101213.84
2022-11-15T07:38:55.834Z,101215.72
2022-11-15T07:41:22.259Z,101214.03
2022-11-15T07:43:51.790Z,101213.19
2022-11-15T07:46:18.178Z,101214.03
2022-11-15T07:48:45.580Z,101215.91
2022-11-15T07:51:14.398Z,101214.03
2022-11-15T07:53:41.123Z,101216.56
2022-11-15T07:56:08.454Z,101210.13
2022-11-15T07:58:34.946Z,101215.72
2022-11-15T08:01:05.247Z,101207.56
2022-11-15T08:03:31.912Z,101210.28
2022-11-15T08:05:58.501Z,101202.97
2022-11-15T08:08:24.927Z,101196.53
2022-11-15T08:10:51.478Z,101201.97
2022-11-15T08:13:17.951Z,101199.25
2022-11-15T08:15:44.766Z,101190.06
2022-11-15T08:18:12.877Z,101193.63
2022-11-15T08:20:39.257Z,101190.91
2022-11-15T08:23:06.355Z,101185.66
2022-11-15T08:25:33.659Z,101192.97
2022-11-15T08:28:01.368Z,101192.97
2022-11-15T08:30:28.427Z,101192.78
2022-11-15T08:32:57.010Z,101199.06
2022-11-15T08:35:28.664Z,101202.47
2022-11-15T08:37:55.580Z,101188.88
2022-11-15T08:40:22.439Z,101186.81
2022-11-15T08:42:48.804Z,101184.94
2022-11-15T08:45:15.825Z,101183.06
2022-11-15T08:47:42.209Z,101182.22
2022-11-15T08:50:08.819Z,101180.34
2022-11-15T08:52:35.188Z,101175.59
2022-11-15T08:55:01.691Z,101174.56
2022-11-15T08:57:34.000Z,101173.72
2022-11-15T09:00:00.416Z,101173.03
2022-11-15T09:02:26.775Z,101178.47
2022-11-15T09:04:53.140Z,101180.53
2022-11-15T09:07:19.772Z,101181.72
2022-11-15T09:09:46.239Z,101193.44
2022-11-15T09:12:12.585Z,101186.81
2022-11-15T09:14:39.275Z,101183.91
2022-11-15T09:17:08.089Z,101188.34
2022-11-15T09:19:34.488Z,101190.22
2022-11-15T09:22:01.020Z,101184.59
2022-11-15T09:24:27.381Z,101196.16
2022-11-15T09:26:53.834Z,101192.44
2022-11-15T09:29:20.333Z,101189.03
2022-11-15T09:31:46.761Z,101191.06
2022-11-15T09:34:13.173Z,101205.34
2022-11-15T09:36:39.623Z,101192.59
2022-11-15T09:39:06.091Z,101201.25
2022-11-15T09:41:41.316Z,101202.47
2022-11-15T09:44:21.215Z,101192.25
2022-11-15T09:47:01.996Z,101193.81
2022-11-15T09:49:29.693Z,101193.59
2022-11-15T09:51:56.551Z,101188.50
2022-11-15T09:57:30.920Z,101181.69
2022-11-15T10:00:45.442Z,101180.47
2022-11-15T10:03:16.241Z,101172.31
2022-11-15T10:05:47.129Z,101184.56
2022-11-15T10:08:31.884Z,101183.06
2022-11-15T10:11:30.379Z,101178.81
2022-11-15T10:13:48.864Z,101169.13
2022-11-15T10:16:35.497Z,101165.75
2022-11-15T10:19:07.765Z,101164.41
2022-11-15T10:21:53.032Z,101156.41
2022-11-15T10:24:20.774Z,101158.59
2022-11-15T10:26:48.540Z,101149.06
2022-11-15T10:29:26.981Z,101143.13
2022-11-15T10:31:54.091Z,101141.75
2022-11-15T10:34:24.553Z,101146.84
2022-11-15T10:37:01.702Z,101141.09
2022-11-15T10:39:28.429Z,101139.72
2022-11-15T10:41:55.259Z,101140.38
2022-11-15T10:44:21.634Z,101149.88
2022-11-15T10:46:57.445Z,101142.56
2022-11-15T10:49:26.501Z,101142.09
2022-11-15T10:51:55.674Z,101141.72
2022-11-15T10:54:28.632Z,101136.09
2022-11-15T10:56:56.599Z,101124.19
2022-11-15T10:59:45.137Z,101118.41
2022-11-15T11:02:43.795Z,101115.31
2022-11-15T11:05:28.698Z,101113.47
2022-11-15T11:08:18.486Z,101106.81
2022-11-15T11:11:04.490Z,101094.56
2022-11-15T11:13:32.571Z,101106.28
2022-11-15T11:15:58.904Z,101106.97
2022-11-15T11:18:54.794Z,101105.94
2022-11-15T11:21:41.414Z,101095.53
2022-11-15T11:24:19.738Z,101104.22
2022-11-15T11:27:00.286Z,101092.94
2022-11-15T11:29:44.455Z,101086.50
2022-11-15T11:32:29.881Z,101099.09
2022-11-15T11:35:22.597Z,101091.75
2022-11-15T11:38:00.164Z,101092.59
2022-11-15T11:40:30.377Z,101090.41
2022-11-15T11:43:00.470Z,101086.31
2022-11-15T11:45:32.814Z,101083.03
2022-11-15T11:48:11.662Z,101083.72
2022-11-15T11:50:38.967Z,101087.94
2022-11-15T11:53:26.540Z,101090.53
2022-11-15T11:55:55.236Z,101075.88
2022-11-15T11:58:27.539Z,101079.44
2022-11-15T12:00:59.467Z,101077.56
2022-11-15T12:03:28.923Z,101084.69
2022-11-15T12:05:57.610Z,101073.13
2022-11-15T12:08:24.427Z,101072.94
2022-11-15T12:10:54.210Z,101071.91
2022-11-15T12:13:24.419Z,101061.88
2022-11-15T12:16:10.329Z,101066.31
2022-11-15T12:18:37.579Z,101062.53
2022-11-15T12:21:10.041Z,101059.81
2022-11-15T12:23:49.853Z,101062.34
2022-11-15T12:26:22.474Z,101057.75
2022-11-15T12:29:06.818Z,101056.75
2022-11-15T12:31:39.498Z,101059.47
2022-11-15T12:34:25.930Z,101056.75
2022-11-15T12:36:52.590Z,101057.59
2022-11-15T12:39:19.802Z,101053.19
2022-11-15T12:41:58.093Z,101056.75
2022-11-15T12:44:34.035Z,101051.66
2022-11-15T12:47:02.505Z,101050.63
2022-11-15T12:49:29.005Z,101048.09
2022-11-15T12:51:58.596Z,101042.44
2022-11-15T12:54:24.964Z,101035.13
2022-11-15T12:57:03.704Z,101031.75
2022-11-15T12:59:48.741Z,101027.13
2022-11-15T13:02:27.547Z,101031.75
2022-11-15T13:04:55.973Z,101028.34
2022-11-15T13:07:40.770Z,101031.06
2022-11-15T13:10:13.215Z,101030.06
2022-11-15T13:12:41.487Z,101025.63
2022-11-15T13:15:14.013Z,101025.81
2022-11-15T13:17:47.374Z,101023.09
2022-11-15T13:20:16.875Z,101023.09
2022-11-15T13:23:17.171Z,101024.97
2022-11-15T13:26:02.095Z,101032.94
2022-11-15T13:28:37.396Z,101022.25
2022-11-15T13:31:26.858Z,101027.50
2022-11-15T13:33:54.064Z,101026.84
2022-11-15T13:36:24.676Z,101029.56
2022-11-15T13:38:57.855Z,101033.13
2022-11-15T13:41:26.059Z,101033.97
2022-11-15T13:43:53.269Z,101033.13
2022-11-15T13:46:23.939Z,101030.41
2022-11-15T13:48:55.339Z,101023.94
2022-11-15T13:51:25.801Z,101023.09
2022-11-15T13:53:55.218Z,101018.66
2022-11-15T13:56:21.781Z,101022.44
2022-11-15T13:58:48.562Z,101027.19
2022-11-15T14:01:16.912Z,101029.91
2022-11-15T14:03:48.840Z,101031.59
2022-11-15T14:06:16.901Z,101031.44
2022-11-15T14:08:58.763Z,101035.16
2022-11-15T14:11:25.514Z,101032.44
2022-11-15T14:14:00.909Z,101025.16
2022-11-15T14:16:34.549Z,101017.81
2022-11-15T14:19:01.107Z,101009.66
2022-11-15T14:21:27.496Z,101006.94
2022-11-15T14:23:54.042Z,101007.94
2022-11-15T14:26:28.284Z,101007.94
2022-11-15T14:28:54.738Z,101017.81
2022-11-15T14:31:21.707Z,101015.09
2022-11-15T14:33:48.671Z,101012.38
2022-11-15T14:36:16.281Z,101022.44
2022-11-15T14:38:43.891Z,101013.22
2022-11-15T14:41:28.145Z,101004.00
2022-11-15T14:43:54.634Z,100996.50
2022-11-15T14:46:21.040Z,100986.47
2022-11-15T14:48:47.465Z,100984.41
2022-11-15T14:51:14.808Z,100975.41
2022-11-15T14:53:42.299Z,100984.75
2022-11-15T14:56:08.931Z,100980.16
2022-11-15T14:58:35.630Z,100995.50
2022-11-15T15:01:03.522Z,100991.94
2022-11-15T15:03:29.895Z,100987.13
2022-11-15T15:05:57.319Z,100981.69
2022-11-15T15:08:23.769Z,100982.53
2022-11-15T15:10:50.231Z,100984.22
2022-11-15T15:13:21.429Z,100982.53
2022-11-15T15:15:48.569Z,100986.28
2022-11-15T15:18:16.313Z,100990.88
2022-11-15T15:20:44.118Z,100989.00
2022-11-15T15:23:18.053Z,100986.09
2022-11-15T15:25:46.502Z,100981.69
2022-11-15T15:28:13.684Z,100979.81
2022-11-15T15:30:40.115Z,100980.16
2022-11-15T15:33:07.181Z,100974.53
2022-11-15T15:35:34.900Z,100970.13
2022-11-15T15:38:01.799Z,100976.59
2022-11-15T15:40:29.452Z,100982.72
2022-11-15T15:42:55.836Z,100973.69
2022-11-15T15:45:22.272Z,100973.50
2022-11-15T15:47:50.370Z,100969.75
2022-11-15T15:50:26.020Z,100970.25
2022-11-15T15:52:53.444Z,100963.09
2022-11-15T15:55:20.471Z,100961.22
2022-11-15T15:57:47.440Z,100962.06
2022-11-15T16:00:14.581Z,100962.91
2022-11-15T16:02:41.566Z,100959.34
2022-11-15T16:05:08.613Z,100963.94
2022-11-15T16:07:35.409Z,100966.66
2022-11-15T16:10:03.048Z,100963.94
2022-11-15T16:12:34.067Z,100970.44
2022-11-15T16:15:01.203Z,100961.41
2022-11-15T16:17:33.896Z,100963.31
2022-11-15T16:20:00.733Z,100959.69
2022-11-15T16:22:27.265Z,100961.41
2022-11-15T16:24:53.643Z,100950.53
2022-11-15T16:27:21.414Z,100950.03
2022-11-15T16:29:48.076Z,100943.63
2022-11-15T16:32:14.905Z,100950.94
2022-11-15T16:34:46.118Z,100952.63
2022-11-15T16:37:22.543Z,100949.06
2022-11-15T16:39:48.991Z,100949.06
2022-11-15T16:42:15.375Z,100942.22
2022-11-15T16:44:41.910Z,100939.69
2022-11-15T16:47:19.268Z,100937.81
2022-11-15T16:49:45.781Z,100943.75
2022-11-15T16:52:12.320Z,100949.00
2022-11-15T16:54:38.724Z,100945.44
2022-11-15T16:57:05.217Z,100947.78
2022-11-15T16:59:38.144Z,100947.25
2022-11-15T17:02:08.638Z,100947.06
2022-11-15T17:04:35.219Z,100950.47
2022-11-15T17:07:01.692Z,100946.88
2022-11-15T17:09:28.255Z,100943.13
2022-11-15T17:11:54.721Z,100940.22
2022-11-15T17:14:21.251Z,100937.69
2022-11-15T17:16:48.245Z,100940.34
2022-11-15T17:19:15.765Z,100936.84
2022-11-15T17:21:42.933Z,100934.63
2022-11-15T17:24:10.097Z,100934.25
2022-11-15T17:26:40.527Z,100943.91
2022-11-15T17:29:08.085Z,100933.69
2022-11-15T17:31:38.016Z,100940.84
2022-11-15T17:34:05.229Z,100931.63
2022-11-15T17:36:31.726Z,100937.94
2022-11-15T17:38:59.740Z,100930.59
2022-11-15T17:41:27.027Z,100936.91
2022-11-15T17:43:53.483Z,100929.56
2022-11-15T17:46:20.987Z,100924.97
2022-11-15T17:48:48.082Z,100918.66
2022-11-15T17:51:15.655Z,100915.09
2022-11-15T17:53:43.241Z,100907.75
2022-11-15T17:56:17.043Z,100914.91
2022-11-15T17:58:47.884Z,100918.47
2022-11-15T18:01:19.851Z,100920.34
2022-11-15T18:03:46.646Z,100915.75
2022-11-15T18:06:13.350Z,100906.72
2022-11-15T18:08:40.865Z,100908.81
2022-11-15T18:11:08.505Z,100916.13
2022-11-15T18:13:35.900Z,100913.41
2022-11-15T18:16:05.457Z,100897.06
2022-11-15T18:18:33.158Z,100890.72
2022-11-15T18:21:00.837Z,100884.44
2022-11-15T18:23:27.242Z,100876.47
2022-11-15T18:25:53.576Z,100884.44
2022-11-15T18:28:20.323Z,100883.59
2022-11-15T18:30:46.763Z,100878.16
2022-11-15T18:33:13.227Z,100864.72
2022-11-15T18:35:39.658Z,100881.06
2022-11-15T18:38:06.050Z,100873.06
2022-11-15T18:40:32.513Z,100877.50
2022-11-15T18:42:58.921Z,100874.94
2022-11-15T18:45:25.450Z,100872.22
2022-11-15T18:47:51.981Z,100877.88
2022-11-15T18:50:18.523Z,100865.28
2022-11-15T18:52:45.094Z,100873.47
2022-11-15T18:55:12.087Z,100871.56
2022-11-15T18:57:38.571Z,100875.34
2022-11-15T19:00:05.217Z,100882.47
2022-11-15T19:02:31.643Z,100887.25
2022-11-15T19:04:58.175Z,100887.25
2022-11-15T19:07:24.674Z,100872.78
2022-11-15T19:09:51.219Z,100880.97
2022-11-15T19:12:17.658Z,100890.19
2022-11-15T19:14:44.066Z,100894.78
2022-11-15T19:17:10.904Z,100888.50
2022-11-15T19:19:37.309Z,100895.63
2022-11-15T19:22:03.738Z,100886.78
2022-11-15T19:24:30.213Z,100883.19
2022-11-15T19:26:56.794Z,100887.66
2022-11-15T19:29:23.261Z,100883.19
2022-11-15T19:31:49.758Z,100881.53
2022-11-15T19:34:16.582Z,100883.19
2022-11-15T19:36:43.752Z,100881.31
2022-11-15T19:39:12.865Z,100876.91
2022-11-15T19:41:42.145Z,100883.41
2022-11-15T19:44:09.309Z,100884.25
2022-11-15T19:46:36.041Z,100872.50
2022-11-15T19:49:02.532Z,100869.97
2022-11-15T19:51:30.366Z,100878.31
2022-11-15T19:53:58.133Z,100882.56
2022-11-15T19:56:25.007Z,100871.81
2022-11-15T19:58:52.655Z,100881.88
2022-11-15T20:01:20.347Z,100879.00
2022-11-15T20:03:47.553Z,100875.59
2022-11-15T20:06:16.191Z,100871.81
2022-11-15T20:08:43.379Z,100874.56
2022-11-15T20:11:09.996Z,100880.00
2022-11-15T20:13:36.487Z,100877.47
2022-11-15T20:16:02.871Z,100877.47
2022-11-15T20:18:29.852Z,100886.50
2022-11-15T20:20:57.915Z,100891.94
2022-11-15T20:23:25.030Z,100881.25
2022-11-15T20:25:51.655Z,100882.28
2022-11-15T20:28:21.199Z,100886.00
2022-11-15T20:30:47.851Z,100881.44
2022-11-15T20:33:20.664Z,100883.28
2022-11-15T20:35:47.190Z,100877.00
2022-11-15T20:38:15.918Z,100876.16
2022-11-15T20:40:46.677Z,100878.88
2022-11-15T20:43:15.661Z,100872.38
2022-11-15T20:45:47.262Z,100876.84
2022-11-15T20:48:14.391Z,100869.50
2022-11-15T20:50:43.233Z,100873.06
2022-11-15T20:53:12.435Z,100868.47
2022-11-15T20:55:50.611Z,100871.19
2022-11-15T20:58:17.514Z,100871.19
2022-11-15T21:00:46.580Z,100870.16
2022-11-15T21:03:13.870Z,100850.22
2022-11-15T21:05:43.582Z,100859.25
2022-11-15T21:08:10.476Z,100868.09
2022-11-15T21:10:55.785Z,100862.66
2022-11-15T21:13:24.900Z,100856.34
2022-11-15T21:15:54.958Z,100863.66
2022-11-15T21:18:23.089Z,100856.34
2022-11-15T21:20:50.743Z,100850.03
2022-11-15T21:23:17.282Z,100844.59
2022-11-15T21:25:53.415Z,100846.84
2022-11-15T21:28:20.868Z,100850.44
2022-11-15T21:30:57.783Z,100847.50
2022-11-15T21:33:27.390Z,100851.06
2022-11-15T21:35:58.629Z,100854.00
2022-11-15T21:38:25.098Z,100857.09
2022-11-15T21:40:52.711Z,100860.09
2022-11-15T21:43:19.429Z,100858.69
2022-11-15T21:46:00.273Z,100873.81
2022-11-15T21:48:27.496Z,100861.03
2022-11-15T21:51:00.562Z,100862.72
2022-11-15T21:53:27.520Z,100863.41
2022-11-15T21:55:54.247Z,100864.44
2022-11-15T21:58:21.730Z,100866.13
2022-11-15T22:01:07.476Z,100857.28
2022-11-15T22:03:34.104Z,100855.22
2022-11-15T22:06:00.582Z,100857.75
2022-11-15T22:08:27.222Z,100856.06
2022-11-15T22:10:53.706Z,100853.34
2022-11-15T22:13:20.581Z,100844.31
2022-11-15T22:15:47.469Z,100833.22
2022-11-15T22:18:14.481Z,100829.66
2022-11-15T22:20:45.397Z,100825.06
2022-11-15T22:23:12.430Z,100829.47
2022-11-15T22:25:38.835Z,100822.31
2022-11-15T22:28:05.339Z,100828.63
2022-11-15T22:30:31.805Z,100823.00
2022-11-15T22:32:58.219Z,100820.91
2022-11-15T22:35:24.803Z,100828.94
2022-11-15T22:37:52.728Z,100831.66
2022-11-15T22:40:19.299Z,100836.22
2022-11-15T22:42:45.735Z,100828.06
2022-11-15T22:45:12.208Z,100826.56
2022-11-15T22:47:38.695Z,100832.19
2022-11-15T22:50:06.545Z,100824.22
2022-11-15T22:52:32.983Z,100828.63
2022-11-15T22:54:59.403Z,100820.84
2022-11-15T22:57:25.794Z,100815.75
2022-11-15T22:59:52.252Z,100806.06
2022-11-15T23:02:18.763Z,100807.31
2022-11-15T23:04:45.584Z,100799.88
2022-11-15T23:07:12.118Z,100791.91
2022-11-15T23:09:38.833Z,100802.13
2022-11-15T23:12:23.919Z,100785.31
2022-11-15T23:14:50.351Z,100788.41
2022-11-15T23:17:16.779Z,100784.38
2022-11-15T23:19:43.227Z,100782.84
2022-11-15T23:22:28.495Z,100795.84
2022-11-15T23:24:55.885Z,100796.00
2022-11-15T23:27:22.924Z,100788.88
2022-11-15T23:30:08.115Z,100784.81
2022-11-15T23:32:53.047Z,100780.59
2022-11-15T23:35:19.647Z,100789.78
2022-11-15T23:37:46.041Z,100778.91
2022-11-15T23:40:12.599Z,100780.97
2022-11-15T23:42:39.463Z,100782.66
2022-11-15T23:45:06.349Z,100787.25
2022-11-15T23:47:32.799Z,100787.06
2022-11-15T23:49:59.240Z,100779.94
2022-11-15T23:52:25.672Z,100779.25
2022-11-15T23:54:52.168Z,100776.53
2022-11-15T23:57:18.564Z,100775.69
2022-11-15T23:59:45.008Z,100787.44
